CheckWX is a tool to help pilots better visualize weather data.  It is not intended as a substitute for an official pre-flight weather briefing.

04:42:20 UTC

KAJZ METAR
Blake Field Airport
Delta, Colorado, USA
Current

27 mins ago

KAJZ 230415Z AUTO 03006KT 7SM CLR 23/03 A3000 RMK AO2 T02330030
Observed
Aug-23 @ 04:15 UTC
Wind
  • 030° at 6 KTS
Visibility
7 SM
Flight Rules
VFR
Cloud Levels
  • Clear skies
Temperature
23°C / 73°F
Dewpoint
C / 37°F
Humidity
27%
Altimeter
30" Hg
Pressure
1015.92 hPa
Previous

47 mins ago

KAJZ 230355Z AUTO 02008KT 10SM CLR 24/04 A2999 RMK AO2 T02370036
Observed
Aug-23 @ 03:55 UTC
Wind
  • 020° at 8 KTS
Visibility
10 SM
Flight Rules
VFR
Cloud Levels
  • Clear skies
Temperature
24°C / 75°F
Dewpoint
C / 39°F
Humidity
27%
Altimeter
29.99" Hg
Pressure
1015.62 hPa
Previous

1 hour ago

KAJZ 230335Z AUTO 03009KT 10SM CLR 24/04 A2999 RMK AO2 T02420037
Observed
Aug-23 @ 03:35 UTC
Wind
  • 030° at 9 KTS
Visibility
10 SM
Flight Rules
VFR
Cloud Levels
  • Clear skies
Temperature
24°C / 75°F
Dewpoint
C / 39°F
Humidity
27%
Altimeter
29.99" Hg
Pressure
1015.62 hPa